sensor_id;sensor_type;location;lat;lon;timestamp;P1;durP1;ratioP1;P2;durP2;ratioP2
62572;SDS011;48626;51.678;5.806;2023-07-29T00:01:12;9.00;;;4.40;;
62572;SDS011;48626;51.678;5.806;2023-07-29T00:03:37;6.88;;;4.45;;
62572;SDS011;48626;51.678;5.806;2023-07-29T00:06:03;8.88;;;4.22;;
62572;SDS011;48626;51.678;5.806;2023-07-29T00:08:29;6.22;;;4.22;;
62572;SDS011;48626;51.678;5.806;2023-07-29T00:10:54;5.80;;;3.90;;
62572;SDS011;48626;51.678;5.806;2023-07-29T00:13:20;7.78;;;4.53;;
62572;SDS011;48626;51.678;5.806;2023-07-29T00:15:46;5.50;;;4.20;;
62572;SDS011;48626;51.678;5.806;2023-07-29T00:18:11;10.40;;;4.70;;
62572;SDS011;48626;51.678;5.806;2023-07-29T00:20:37;9.02;;;4.63;;
62572;SDS011;48626;51.678;5.806;2023-07-29T00:23:03;11.50;;;4.63;;
62572;SDS011;48626;51.678;5.806;2023-07-29T00:25:28;6.90;;;4.60;;
62572;SDS011;48626;51.678;5.806;2023-07-29T00:27:55;6.88;;;4.57;;
62572;SDS011;48626;51.678;5.806;2023-07-29T00:30:21;9.90;;;4.57;;
62572;SDS011;48626;51.678;5.806;2023-07-29T00:32:47;6.75;;;4.75;;
62572;SDS011;48626;51.678;5.806;2023-07-29T00:35:12;8.15;;;4.72;;
62572;SDS011;48626;51.678;5.806;2023-07-29T00:37:38;12.70;;;4.80;;
62572;SDS011;48626;51.678;5.806;2023-07-29T00:40:07;7.28;;;5.13;;
62572;SDS011;48626;51.678;5.806;2023-07-29T00:42:45;6.57;;;4.75;;
62572;SDS011;48626;51.678;5.806;2023-07-29T00:45:11;8.23;;;4.97;;
62572;SDS011;48626;51.678;5.806;2023-07-29T00:47:38;7.47;;;4.88;;
62572;SDS011;48626;51.678;5.806;2023-07-29T00:50:04;8.57;;;4.85;;
62572;SDS011;48626;51.678;5.806;2023-07-29T00:52:32;8.40;;;4.65;;
62572;SDS011;48626;51.678;5.806;2023-07-29T00:54:58;8.77;;;4.72;;
62572;SDS011;48626;51.678;5.806;2023-07-29T00:57:23;9.30;;;5.10;;
62572;SDS011;48626;51.678;5.806;2023-07-29T00:59:50;9.68;;;5.40;;
62572;SDS011;48626;51.678;5.806;2023-07-29T01:02:16;9.50;;;5.45;;
62572;SDS011;48626;51.678;5.806;2023-07-29T01:04:42;9.02;;;5.68;;
62572;SDS011;48626;51.678;5.806;2023-07-29T01:15:10;8.68;;;5.20;;
62572;SDS011;48626;51.678;5.806;2023-07-29T01:17:39;10.55;;;5.75;;
62572;SDS011;48626;51.678;5.806;2023-07-29T01:20:13;7.13;;;5.28;;
62572;SDS011;48626;51.678;5.806;2023-07-29T01:22:40;8.05;;;5.47;;
62572;SDS011;48626;51.678;5.806;2023-07-29T01:25:07;11.00;;;5.22;;
62572;SDS011;48626;51.678;5.806;2023-07-29T01:27:32;10.70;;;5.50;;
62572;SDS011;48626;51.678;5.806;2023-07-29T01:29:58;8.95;;;5.32;;
62572;SDS011;48626;51.678;5.806;2023-07-29T01:32:28;10.85;;;5.45;;
62572;SDS011;48626;51.678;5.806;2023-07-29T01:35:10;9.50;;;5.10;;
62572;SDS011;48626;51.678;5.806;2023-07-29T01:37:48;6.97;;;5.32;;
62572;SDS011;48626;51.678;5.806;2023-07-29T01:40:16;8.45;;;5.03;;
62572;SDS011;48626;51.678;5.806;2023-07-29T01:42:43;15.75;;;5.10;;
62572;SDS011;48626;51.678;5.806;2023-07-29T01:45:11;10.25;;;5.28;;
62572;SDS011;48626;51.678;5.806;2023-07-29T01:47:36;7.25;;;5.20;;
62572;SDS011;48626;51.678;5.806;2023-07-29T01:50:05;8.75;;;5.43;;
62572;SDS011;48626;51.678;5.806;2023-07-29T01:52:31;9.45;;;5.70;;
62572;SDS011;48626;51.678;5.806;2023-07-29T01:54:57;9.93;;;5.32;;
62572;SDS011;48626;51.678;5.806;2023-07-29T01:57:22;9.90;;;5.85;;
62572;SDS011;48626;51.678;5.806;2023-07-29T01:59:48;11.73;;;5.90;;
62572;SDS011;48626;51.678;5.806;2023-07-29T02:02:14;9.27;;;5.82;;
62572;SDS011;48626;51.678;5.806;2023-07-29T02:04:39;8.07;;;5.88;;
62572;SDS011;48626;51.678;5.806;2023-07-29T02:07:05;10.13;;;5.72;;
62572;SDS011;48626;51.678;5.806;2023-07-29T02:09:30;11.77;;;6.13;;
62572;SDS011;48626;51.678;5.806;2023-07-29T02:11:57;9.48;;;5.82;;
62572;SDS011;48626;51.678;5.806;2023-07-29T02:14:23;10.80;;;6.25;;
62572;SDS011;48626;51.678;5.806;2023-07-29T02:16:49;10.43;;;5.78;;
62572;SDS011;48626;51.678;5.806;2023-07-29T02:19:15;10.07;;;6.05;;
62572;SDS011;48626;51.678;5.806;2023-07-29T02:21:41;11.60;;;6.35;;
62572;SDS011;48626;51.678;5.806;2023-07-29T02:24:06;12.55;;;6.40;;
62572;SDS011;48626;51.678;5.806;2023-07-29T02:26:32;13.00;;;6.75;;
62572;SDS011;48626;51.678;5.806;2023-07-29T02:28:57;11.48;;;6.70;;
62572;SDS011;48626;51.678;5.806;2023-07-29T02:31:24;11.73;;;7.03;;
62572;SDS011;48626;51.678;5.806;2023-07-29T02:33:50;14.00;;;7.18;;
62572;SDS011;48626;51.678;5.806;2023-07-29T02:36:17;12.50;;;7.28;;
62572;SDS011;48626;51.678;5.806;2023-07-29T02:38:43;16.92;;;7.38;;
62572;SDS011;48626;51.678;5.806;2023-07-29T02:41:09;10.70;;;6.70;;
62572;SDS011;48626;51.678;5.806;2023-07-29T02:43:37;10.77;;;6.13;;
62572;SDS011;48626;51.678;5.806;2023-07-29T02:46:03;9.68;;;6.50;;
62572;SDS011;48626;51.678;5.806;2023-07-29T02:48:28;10.77;;;6.20;;
62572;SDS011;48626;51.678;5.806;2023-07-29T02:50:55;8.43;;;5.82;;
62572;SDS011;48626;51.678;5.806;2023-07-29T02:53:24;10.75;;;6.22;;
62572;SDS011;48626;51.678;5.806;2023-07-29T02:55:50;6.88;;;5.65;;
62572;SDS011;48626;51.678;5.806;2023-07-29T02:58:15;9.45;;;5.68;;
62572;SDS011;48626;51.678;5.806;2023-07-29T03:00:41;12.82;;;5.57;;
62572;SDS011;48626;51.678;5.806;2023-07-29T03:03:08;8.75;;;5.28;;
62572;SDS011;48626;51.678;5.806;2023-07-29T03:05:34;8.35;;;5.40;;
62572;SDS011;48626;51.678;5.806;2023-07-29T03:08:00;8.77;;;5.53;;
62572;SDS011;48626;51.678;5.806;2023-07-29T03:10:25;9.48;;;5.45;;
62572;SDS011;48626;51.678;5.806;2023-07-29T03:12:53;10.25;;;5.70;;
62572;SDS011;48626;51.678;5.806;2023-07-29T03:15:22;11.18;;;7.10;;
62572;SDS011;48626;51.678;5.806;2023-07-29T03:17:49;13.10;;;7.05;;
62572;SDS011;48626;51.678;5.806;2023-07-29T03:20:15;12.98;;;7.85;;
62572;SDS011;48626;51.678;5.806;2023-07-29T03:22:42;13.48;;;6.80;;
62572;SDS011;48626;51.678;5.806;2023-07-29T03:25:08;10.27;;;6.47;;
62572;SDS011;48626;51.678;5.806;2023-07-29T03:27:34;8.77;;;6.32;;
62572;SDS011;48626;51.678;5.806;2023-07-29T03:30:02;13.23;;;6.28;;
62572;SDS011;48626;51.678;5.806;2023-07-29T03:32:28;9.35;;;6.00;;
62572;SDS011;48626;51.678;5.806;2023-07-29T03:34:54;9.07;;;6.05;;
62572;SDS011;48626;51.678;5.806;2023-07-29T03:37:19;8.60;;;5.93;;
62572;SDS011;48626;51.678;5.806;2023-07-29T03:39:46;7.97;;;5.45;;
62572;SDS011;48626;51.678;5.806;2023-07-29T03:42:12;9.55;;;5.65;;
62572;SDS011;48626;51.678;5.806;2023-07-29T03:44:38;9.13;;;5.53;;
62572;SDS011;48626;51.678;5.806;2023-07-29T03:47:05;9.35;;;5.63;;
62572;SDS011;48626;51.678;5.806;2023-07-29T03:49:31;8.68;;;5.60;;
62572;SDS011;48626;51.678;5.806;2023-07-29T03:51:57;10.55;;;6.05;;
62572;SDS011;48626;51.678;5.806;2023-07-29T03:54:22;10.90;;;6.20;;
62572;SDS011;48626;51.678;5.806;2023-07-29T03:56:48;7.78;;;5.63;;
62572;SDS011;48626;51.678;5.806;2023-07-29T03:59:14;8.70;;;5.70;;
62572;SDS011;48626;51.678;5.806;2023-07-29T04:01:40;8.98;;;6.28;;
62572;SDS011;48626;51.678;5.806;2023-07-29T04:04:05;6.88;;;5.25;;
62572;SDS011;48626;51.678;5.806;2023-07-29T04:06:31;8.20;;;6.18;;
62572;SDS011;48626;51.678;5.806;2023-07-29T04:08:57;8.20;;;5.93;;
62572;SDS011;48626;51.678;5.806;2023-07-29T04:11:23;10.77;;;5.78;;
62572;SDS011;48626;51.678;5.806;2023-07-29T04:13:49;10.73;;;5.95;;
62572;SDS011;48626;51.678;5.806;2023-07-29T04:16:14;8.50;;;5.85;;
62572;SDS011;48626;51.678;5.806;2023-07-29T04:18:41;10.75;;;5.93;;
62572;SDS011;48626;51.678;5.806;2023-07-29T04:21:07;11.88;;;5.55;;
62572;SDS011;48626;51.678;5.806;2023-07-29T04:23:33;9.73;;;5.75;;
62572;SDS011;48626;51.678;5.806;2023-07-29T04:25:58;7.72;;;5.53;;
62572;SDS011;48626;51.678;5.806;2023-07-29T04:28:24;8.07;;;5.72;;
62572;SDS011;48626;51.678;5.806;2023-07-29T04:30:50;9.50;;;5.63;;
62572;SDS011;48626;51.678;5.806;2023-07-29T04:33:15;8.30;;;5.68;;
62572;SDS011;48626;51.678;5.806;2023-07-29T04:35:41;8.68;;;5.70;;
62572;SDS011;48626;51.678;5.806;2023-07-29T04:38:06;18.10;;;6.65;;
62572;SDS011;48626;51.678;5.806;2023-07-29T04:40:32;11.40;;;5.88;;
62572;SDS011;48626;51.678;5.806;2023-07-29T04:43:00;11.02;;;5.95;;
62572;SDS011;48626;51.678;5.806;2023-07-29T04:45:29;9.23;;;6.00;;
62572;SDS011;48626;51.678;5.806;2023-07-29T04:47:55;10.07;;;6.20;;
62572;SDS011;48626;51.678;5.806;2023-07-29T04:50:21;9.25;;;5.88;;
62572;SDS011;48626;51.678;5.806;2023-07-29T04:52:47;9.30;;;6.30;;
62572;SDS011;48626;51.678;5.806;2023-07-29T04:55:13;11.82;;;5.45;;
62572;SDS011;48626;51.678;5.806;2023-07-29T04:57:39;12.55;;;5.90;;
62572;SDS011;48626;51.678;5.806;2023-07-29T05:00:04;8.80;;;5.60;;
62572;SDS011;48626;51.678;5.806;2023-07-29T05:02:30;11.98;;;5.57;;
62572;SDS011;48626;51.678;5.806;2023-07-29T05:04:56;10.73;;;5.43;;
62572;SDS011;48626;51.678;5.806;2023-07-29T05:07:22;7.45;;;5.13;;
62572;SDS011;48626;51.678;5.806;2023-07-29T05:09:48;9.88;;;5.55;;
62572;SDS011;48626;51.678;5.806;2023-07-29T05:12:13;9.98;;;5.57;;
62572;SDS011;48626;51.678;5.806;2023-07-29T05:14:39;11.57;;;5.57;;
62572;SDS011;48626;51.678;5.806;2023-07-29T05:17:05;9.63;;;5.85;;
62572;SDS011;48626;51.678;5.806;2023-07-29T05:19:31;10.30;;;5.70;;
62572;SDS011;48626;51.678;5.806;2023-07-29T05:21:56;9.15;;;5.63;;
62572;SDS011;48626;51.678;5.806;2023-07-29T05:24:22;8.30;;;5.35;;
62572;SDS011;48626;51.678;5.806;2023-07-29T05:26:48;9.98;;;5.63;;
62572;SDS011;48626;51.678;5.806;2023-07-29T05:29:14;7.00;;;4.95;;
62572;SDS011;48626;51.678;5.806;2023-07-29T05:31:40;8.15;;;4.70;;
62572;SDS011;48626;51.678;5.806;2023-07-29T05:34:05;8.65;;;5.28;;
62572;SDS011;48626;51.678;5.806;2023-07-29T05:36:31;8.80;;;5.13;;
62572;SDS011;48626;51.678;5.806;2023-07-29T05:38:57;8.23;;;5.32;;
62572;SDS011;48626;51.678;5.806;2023-07-29T05:41:22;8.57;;;5.30;;
62572;SDS011;48626;51.678;5.806;2023-07-29T05:43:48;11.27;;;5.72;;
62572;SDS011;48626;51.678;5.806;2023-07-29T05:46:14;11.07;;;5.57;;
62572;SDS011;48626;51.678;5.806;2023-07-29T05:48:39;6.82;;;4.95;;
62572;SDS011;48626;51.678;5.806;2023-07-29T05:51:05;7.47;;;5.10;;
62572;SDS011;48626;51.678;5.806;2023-07-29T05:53:31;7.00;;;5.35;;
62572;SDS011;48626;51.678;5.806;2023-07-29T05:55:56;11.55;;;6.13;;
62572;SDS011;48626;51.678;5.806;2023-07-29T05:58:22;7.07;;;5.07;;
62572;SDS011;48626;51.678;5.806;2023-07-29T06:00:48;12.18;;;5.13;;
62572;SDS011;48626;51.678;5.806;2023-07-29T06:03:14;9.15;;;5.40;;
62572;SDS011;48626;51.678;5.806;2023-07-29T06:05:40;7.63;;;5.15;;
62572;SDS011;48626;51.678;5.806;2023-07-29T06:08:05;9.95;;;5.38;;
62572;SDS011;48626;51.678;5.806;2023-07-29T06:10:33;8.95;;;4.95;;
62572;SDS011;48626;51.678;5.806;2023-07-29T06:12:59;12.48;;;5.35;;
62572;SDS011;48626;51.678;5.806;2023-07-29T06:15:24;8.65;;;5.05;;
62572;SDS011;48626;51.678;5.806;2023-07-29T06:17:50;7.57;;;5.40;;
62572;SDS011;48626;51.678;5.806;2023-07-29T06:20:16;9.77;;;4.63;;
62572;SDS011;48626;51.678;5.806;2023-07-29T06:22:41;8.00;;;5.15;;
62572;SDS011;48626;51.678;5.806;2023-07-29T06:25:08;13.80;;;5.50;;
62572;SDS011;48626;51.678;5.806;2023-07-29T06:27:33;8.25;;;5.60;;
62572;SDS011;48626;51.678;5.806;2023-07-29T06:29:59;9.48;;;5.22;;
62572;SDS011;48626;51.678;5.806;2023-07-29T06:32:25;8.82;;;5.18;;
62572;SDS011;48626;51.678;5.806;2023-07-29T06:34:51;7.03;;;5.20;;
62572;SDS011;48626;51.678;5.806;2023-07-29T06:37:19;11.80;;;5.30;;
62572;SDS011;48626;51.678;5.806;2023-07-29T06:39:44;7.63;;;5.07;;
62572;SDS011;48626;51.678;5.806;2023-07-29T06:42:10;9.05;;;5.38;;
62572;SDS011;48626;51.678;5.806;2023-07-29T06:44:36;7.50;;;5.43;;
62572;SDS011;48626;51.678;5.806;2023-07-29T06:47:01;11.27;;;5.50;;
62572;SDS011;48626;51.678;5.806;2023-07-29T06:49:27;10.07;;;5.50;;
62572;SDS011;48626;51.678;5.806;2023-07-29T06:51:52;8.63;;;5.63;;
62572;SDS011;48626;51.678;5.806;2023-07-29T06:54:18;8.68;;;5.47;;
62572;SDS011;48626;51.678;5.806;2023-07-29T06:56:44;9.95;;;5.15;;
62572;SDS011;48626;51.678;5.806;2023-07-29T06:59:09;9.05;;;5.05;;
62572;SDS011;48626;51.678;5.806;2023-07-29T07:01:35;8.10;;;5.03;;
62572;SDS011;48626;51.678;5.806;2023-07-29T07:04:01;7.35;;;4.97;;
62572;SDS011;48626;51.678;5.806;2023-07-29T07:06:26;8.07;;;5.53;;
62572;SDS011;48626;51.678;5.806;2023-07-29T07:08:52;7.85;;;5.63;;
62572;SDS011;48626;51.678;5.806;2023-07-29T07:11:18;9.65;;;6.00;;
62572;SDS011;48626;51.678;5.806;2023-07-29T07:13:44;8.07;;;6.00;;
62572;SDS011;48626;51.678;5.806;2023-07-29T07:16:09;9.90;;;5.78;;
62572;SDS011;48626;51.678;5.806;2023-07-29T07:18:35;10.27;;;6.18;;
62572;SDS011;48626;51.678;5.806;2023-07-29T07:21:01;7.18;;;5.28;;
62572;SDS011;48626;51.678;5.806;2023-07-29T07:23:26;7.30;;;5.50;;
62572;SDS011;48626;51.678;5.806;2023-07-29T07:25:52;8.50;;;5.45;;
62572;SDS011;48626;51.678;5.806;2023-07-29T07:28:17;6.70;;;4.72;;
62572;SDS011;48626;51.678;5.806;2023-07-29T07:30:43;7.80;;;5.43;;
62572;SDS011;48626;51.678;5.806;2023-07-29T07:33:09;7.32;;;4.82;;
62572;SDS011;48626;51.678;5.806;2023-07-29T07:35:35;8.23;;;5.20;;
62572;SDS011;48626;51.678;5.806;2023-07-29T07:38:00;7.57;;;4.53;;
62572;SDS011;48626;51.678;5.806;2023-07-29T07:40:28;7.07;;;4.60;;
62572;SDS011;48626;51.678;5.806;2023-07-29T07:42:55;6.13;;;4.47;;
62572;SDS011;48626;51.678;5.806;2023-07-29T07:45:21;6.40;;;4.05;;
62572;SDS011;48626;51.678;5.806;2023-07-29T07:47:46;10.20;;;4.00;;
62572;SDS011;48626;51.678;5.806;2023-07-29T07:50:13;5.95;;;3.80;;
62572;SDS011;48626;51.678;5.806;2023-07-29T07:52:39;8.20;;;3.75;;
62572;SDS011;48626;51.678;5.806;2023-07-29T07:55:05;6.53;;;3.65;;
62572;SDS011;48626;51.678;5.806;2023-07-29T07:57:31;6.30;;;3.85;;
62572;SDS011;48626;51.678;5.806;2023-07-29T07:59:56;4.47;;;3.42;;
62572;SDS011;48626;51.678;5.806;2023-07-29T08:02:22;6.78;;;3.55;;
62572;SDS011;48626;51.678;5.806;2023-07-29T08:04:48;4.82;;;3.55;;
62572;SDS011;48626;51.678;5.806;2023-07-29T08:07:13;7.63;;;3.60;;
62572;SDS011;48626;51.678;5.806;2023-07-29T08:09:39;8.10;;;3.42;;
62572;SDS011;48626;51.678;5.806;2023-07-29T08:12:05;5.47;;;3.58;;
62572;SDS011;48626;51.678;5.806;2023-07-29T08:14:31;5.45;;;3.47;;
62572;SDS011;48626;51.678;5.806;2023-07-29T08:16:56;6.72;;;3.10;;
62572;SDS011;48626;51.678;5.806;2023-07-29T08:19:22;6.03;;;3.35;;
62572;SDS011;48626;51.678;5.806;2023-07-29T08:21:48;7.07;;;3.60;;
62572;SDS011;48626;51.678;5.806;2023-07-29T08:24:13;6.72;;;3.58;;
62572;SDS011;48626;51.678;5.806;2023-07-29T08:26:39;4.95;;;3.50;;
62572;SDS011;48626;51.678;5.806;2023-07-29T08:29:05;6.40;;;3.30;;
62572;SDS011;48626;51.678;5.806;2023-07-29T08:31:30;6.95;;;3.80;;
62572;SDS011;48626;51.678;5.806;2023-07-29T08:33:58;7.32;;;3.63;;
62572;SDS011;48626;51.678;5.806;2023-07-29T08:36:24;5.15;;;4.10;;
62572;SDS011;48626;51.678;5.806;2023-07-29T08:38:50;6.35;;;3.95;;
62572;SDS011;48626;51.678;5.806;2023-07-29T08:41:16;6.53;;;3.88;;
62572;SDS011;48626;51.678;5.806;2023-07-29T08:43:52;9.38;;;4.07;;
62572;SDS011;48626;51.678;5.806;2023-07-29T08:46:24;7.90;;;3.70;;
62572;SDS011;48626;51.678;5.806;2023-07-29T08:48:50;5.25;;;3.60;;
62572;SDS011;48626;51.678;5.806;2023-07-29T08:51:17;5.53;;;3.97;;
62572;SDS011;48626;51.678;5.806;2023-07-29T08:53:44;6.03;;;3.58;;
62572;SDS011;48626;51.678;5.806;2023-07-29T08:56:11;6.30;;;3.55;;
62572;SDS011;48626;51.678;5.806;2023-07-29T08:58:37;5.63;;;3.10;;
62572;SDS011;48626;51.678;5.806;2023-07-29T09:01:04;5.20;;;3.28;;
62572;SDS011;48626;51.678;5.806;2023-07-29T09:03:30;4.10;;;3.30;;
62572;SDS011;48626;51.678;5.806;2023-07-29T09:05:56;8.30;;;3.40;;
62572;SDS011;48626;51.678;5.806;2023-07-29T09:08:23;6.65;;;3.15;;
62572;SDS011;48626;51.678;5.806;2023-07-29T09:10:53;4.13;;;2.95;;
62572;SDS011;48626;51.678;5.806;2023-07-29T09:13:20;6.40;;;3.08;;
62572;SDS011;48626;51.678;5.806;2023-07-29T09:15:46;5.32;;;2.92;;
62572;SDS011;48626;51.678;5.806;2023-07-29T09:18:15;5.95;;;3.40;;
62572;SDS011;48626;51.678;5.806;2023-07-29T09:20:41;6.32;;;3.05;;
62572;SDS011;48626;51.678;5.806;2023-07-29T09:23:08;4.97;;;2.90;;
62572;SDS011;48626;51.678;5.806;2023-07-29T09:25:35;4.22;;;2.80;;
62572;SDS011;48626;51.678;5.806;2023-07-29T09:28:07;4.47;;;2.80;;
62572;SDS011;48626;51.678;5.806;2023-07-29T09:30:34;3.58;;;2.50;;
62572;SDS011;48626;51.678;5.806;2023-07-29T09:33:00;5.10;;;2.92;;
62572;SDS011;48626;51.678;5.806;2023-07-29T09:35:27;4.03;;;2.65;;
62572;SDS011;48626;51.678;5.806;2023-07-29T09:37:55;4.32;;;2.78;;
62572;SDS011;48626;51.678;5.806;2023-07-29T09:40:21;5.32;;;2.65;;
62572;SDS011;48626;51.678;5.806;2023-07-29T09:42:50;4.28;;;2.50;;
62572;SDS011;48626;51.678;5.806;2023-07-29T09:45:26;4.72;;;2.38;;
62572;SDS011;48626;51.678;5.806;2023-07-29T09:47:52;3.25;;;2.30;;
62572;SDS011;48626;51.678;5.806;2023-07-29T09:50:19;3.38;;;2.38;;
62572;SDS011;48626;51.678;5.806;2023-07-29T09:52:50;5.00;;;2.47;;
62572;SDS011;48626;51.678;5.806;2023-07-29T09:55:21;4.15;;;2.40;;
62572;SDS011;48626;51.678;5.806;2023-07-29T09:57:48;6.45;;;2.70;;
62572;SDS011;48626;51.678;5.806;2023-07-29T10:00:22;9.95;;;2.63;;
62572;SDS011;48626;51.678;5.806;2023-07-29T10:02:48;4.63;;;2.60;;
62572;SDS011;48626;51.678;5.806;2023-07-29T10:05:15;4.28;;;2.17;;
62572;SDS011;48626;51.678;5.806;2023-07-29T10:07:41;4.68;;;2.15;;
62572;SDS011;48626;51.678;5.806;2023-07-29T10:10:07;3.47;;;2.42;;
62572;SDS011;48626;51.678;5.806;2023-07-29T10:12:34;3.35;;;2.35;;
62572;SDS011;48626;51.678;5.806;2023-07-29T10:15:04;6.93;;;2.70;;
62572;SDS011;48626;51.678;5.806;2023-07-29T10:17:35;3.30;;;2.13;;
62572;SDS011;48626;51.678;5.806;2023-07-29T10:20:11;4.00;;;2.30;;
62572;SDS011;48626;51.678;5.806;2023-07-29T10:22:38;3.53;;;2.20;;
62572;SDS011;48626;51.678;5.806;2023-07-29T10:25:15;3.35;;;2.03;;
62572;SDS011;48626;51.678;5.806;2023-07-29T10:30:12;3.45;;;2.20;;
62572;SDS011;48626;51.678;5.806;2023-07-29T10:32:38;3.90;;;2.30;;
62572;SDS011;48626;51.678;5.806;2023-07-29T10:35:10;3.47;;;2.20;;
62572;SDS011;48626;51.678;5.806;2023-07-29T10:37:40;4.00;;;2.63;;
62572;SDS011;48626;51.678;5.806;2023-07-29T10:40:08;5.57;;;2.30;;
62572;SDS011;48626;51.678;5.806;2023-07-29T10:42:35;5.20;;;2.42;;
62572;SDS011;48626;51.678;5.806;2023-07-29T10:45:20;4.25;;;2.30;;
62572;SDS011;48626;51.678;5.806;2023-07-29T10:47:47;3.95;;;2.50;;
62572;SDS011;48626;51.678;5.806;2023-07-29T10:50:17;3.67;;;2.30;;
62572;SDS011;48626;51.678;5.806;2023-07-29T10:52:46;4.85;;;2.60;;
62572;SDS011;48626;51.678;5.806;2023-07-29T10:57:52;3.70;;;2.55;;
62572;SDS011;48626;51.678;5.806;2023-07-29T11:00:44;4.05;;;2.63;;
62572;SDS011;48626;51.678;5.806;2023-07-29T11:03:11;5.82;;;2.72;;
62572;SDS011;48626;51.678;5.806;2023-07-29T11:05:42;10.20;;;3.00;;
62572;SDS011;48626;51.678;5.806;2023-07-29T11:08:16;6.53;;;2.70;;
62572;SDS011;48626;51.678;5.806;2023-07-29T11:10:57;7.15;;;2.90;;
62572;SDS011;48626;51.678;5.806;2023-07-29T11:13:30;3.78;;;2.65;;
62572;SDS011;48626;51.678;5.806;2023-07-29T11:15:58;3.95;;;2.50;;
62572;SDS011;48626;51.678;5.806;2023-07-29T11:18:31;3.83;;;2.50;;
62572;SDS011;48626;51.678;5.806;2023-07-29T11:20:59;3.60;;;2.40;;
62572;SDS011;48626;51.678;5.806;2023-07-29T11:23:32;3.78;;;2.38;;
62572;SDS011;48626;51.678;5.806;2023-07-29T11:25:59;3.08;;;2.40;;
62572;SDS011;48626;51.678;5.806;2023-07-29T11:28:26;4.45;;;2.45;;
62572;SDS011;48626;51.678;5.806;2023-07-29T11:30:53;7.75;;;3.22;;
62572;SDS011;48626;51.678;5.806;2023-07-29T11:33:21;4.47;;;2.53;;
62572;SDS011;48626;51.678;5.806;2023-07-29T11:35:49;3.78;;;2.75;;
62572;SDS011;48626;51.678;5.806;2023-07-29T11:38:18;3.83;;;2.40;;
62572;SDS011;48626;51.678;5.806;2023-07-29T11:41:00;4.32;;;2.58;;
62572;SDS011;48626;51.678;5.806;2023-07-29T11:43:34;5.68;;;2.80;;
62572;SDS011;48626;51.678;5.806;2023-07-29T11:46:01;6.35;;;2.47;;
62572;SDS011;48626;51.678;5.806;2023-07-29T11:48:27;4.53;;;2.30;;
62572;SDS011;48626;51.678;5.806;2023-07-29T11:50:54;2.95;;;2.25;;
62572;SDS011;48626;51.678;5.806;2023-07-29T11:53:20;5.18;;;2.47;;
62572;SDS011;48626;51.678;5.806;2023-07-29T11:55:49;3.55;;;2.42;;
62572;SDS011;48626;51.678;5.806;2023-07-29T11:58:18;5.05;;;2.45;;
62572;SDS011;48626;51.678;5.806;2023-07-29T12:00:45;4.13;;;2.33;;
62572;SDS011;48626;51.678;5.806;2023-07-29T12:03:11;3.83;;;2.50;;
62572;SDS011;48626;51.678;5.806;2023-07-29T12:05:38;6.07;;;2.50;;
62572;SDS011;48626;51.678;5.806;2023-07-29T12:08:04;5.28;;;2.50;;
62572;SDS011;48626;51.678;5.806;2023-07-29T12:10:30;4.65;;;2.40;;
62572;SDS011;48626;51.678;5.806;2023-07-29T12:12:57;3.25;;;2.28;;
62572;SDS011;48626;51.678;5.806;2023-07-29T12:15:26;6.13;;;2.30;;
62572;SDS011;48626;51.678;5.806;2023-07-29T12:20:22;5.25;;;2.40;;
62572;SDS011;48626;51.678;5.806;2023-07-29T12:22:51;4.70;;;2.60;;
62572;SDS011;48626;51.678;5.806;2023-07-29T12:25:21;8.65;;;2.58;;
62572;SDS011;48626;51.678;5.806;2023-07-29T12:27:47;5.13;;;2.60;;
62572;SDS011;48626;51.678;5.806;2023-07-29T12:30:13;5.18;;;2.60;;
62572;SDS011;48626;51.678;5.806;2023-07-29T12:32:45;12.98;;;2.80;;
62572;SDS011;48626;51.678;5.806;2023-07-29T12:35:12;27.77;;;7.55;;
62572;SDS011;48626;51.678;5.806;2023-07-29T12:37:38;33.35;;;7.57;;
62572;SDS011;48626;51.678;5.806;2023-07-29T12:40:07;13.13;;;3.97;;
62572;SDS011;48626;51.678;5.806;2023-07-29T12:42:34;14.13;;;5.45;;
62572;SDS011;48626;51.678;5.806;2023-07-29T12:45:00;12.93;;;3.90;;
62572;SDS011;48626;51.678;5.806;2023-07-29T12:47:26;8.25;;;3.65;;
62572;SDS011;48626;51.678;5.806;2023-07-29T12:49:51;12.10;;;4.72;;
62572;SDS011;48626;51.678;5.806;2023-07-29T12:52:17;11.82;;;3.25;;
62572;SDS011;48626;51.678;5.806;2023-07-29T12:54:42;9.50;;;3.85;;
62572;SDS011;48626;51.678;5.806;2023-07-29T12:57:09;19.83;;;3.20;;
62572;SDS011;48626;51.678;5.806;2023-07-29T12:59:35;12.10;;;3.90;;
62572;SDS011;48626;51.678;5.806;2023-07-29T13:02:00;19.48;;;3.80;;
62572;SDS011;48626;51.678;5.806;2023-07-29T13:04:26;9.10;;;3.20;;
62572;SDS011;48626;51.678;5.806;2023-07-29T13:06:51;7.75;;;3.08;;
62572;SDS011;48626;51.678;5.806;2023-07-29T13:09:17;8.65;;;3.08;;
62572;SDS011;48626;51.678;5.806;2023-07-29T13:11:43;6.40;;;3.38;;
62572;SDS011;48626;51.678;5.806;2023-07-29T13:14:08;13.20;;;2.72;;
62572;SDS011;48626;51.678;5.806;2023-07-29T13:16:34;5.70;;;2.50;;
62572;SDS011;48626;51.678;5.806;2023-07-29T13:18:59;10.75;;;2.70;;
62572;SDS011;48626;51.678;5.806;2023-07-29T13:21:25;9.10;;;3.03;;
62572;SDS011;48626;51.678;5.806;2023-07-29T13:23:51;11.15;;;3.10;;
62572;SDS011;48626;51.678;5.806;2023-07-29T13:26:17;5.07;;;2.72;;
62572;SDS011;48626;51.678;5.806;2023-07-29T13:28:42;10.90;;;4.20;;
62572;SDS011;48626;51.678;5.806;2023-07-29T13:31:08;14.73;;;3.22;;
62572;SDS011;48626;51.678;5.806;2023-07-29T13:33:34;5.38;;;2.88;;
62572;SDS011;48626;51.678;5.806;2023-07-29T13:36:00;5.80;;;3.33;;
62572;SDS011;48626;51.678;5.806;2023-07-29T13:38:28;5.55;;;3.40;;
62572;SDS011;48626;51.678;5.806;2023-07-29T13:40:54;6.07;;;3.28;;
62572;SDS011;48626;51.678;5.806;2023-07-29T13:43:19;5.55;;;2.90;;
62572;SDS011;48626;51.678;5.806;2023-07-29T13:45:45;5.22;;;3.22;;
62572;SDS011;48626;51.678;5.806;2023-07-29T13:48:13;4.80;;;2.83;;
62572;SDS011;48626;51.678;5.806;2023-07-29T13:50:39;4.85;;;2.80;;
62572;SDS011;48626;51.678;5.806;2023-07-29T13:53:06;7.47;;;2.83;;
62572;SDS011;48626;51.678;5.806;2023-07-29T13:55:31;5.38;;;2.92;;
62572;SDS011;48626;51.678;5.806;2023-07-29T13:57:57;3.70;;;2.75;;
62572;SDS011;48626;51.678;5.806;2023-07-29T14:00:23;3.10;;;2.45;;
62572;SDS011;48626;51.678;5.806;2023-07-29T14:02:48;4.90;;;2.70;;
62572;SDS011;48626;51.678;5.806;2023-07-29T14:05:14;5.25;;;2.67;;
62572;SDS011;48626;51.678;5.806;2023-07-29T14:07:40;6.30;;;2.60;;
62572;SDS011;48626;51.678;5.806;2023-07-29T14:10:05;3.47;;;2.78;;
62572;SDS011;48626;51.678;5.806;2023-07-29T14:12:31;6.00;;;3.13;;
62572;SDS011;48626;51.678;5.806;2023-07-29T14:14:57;3.50;;;2.75;;
62572;SDS011;48626;51.678;5.806;2023-07-29T14:17:23;5.45;;;2.97;;
62572;SDS011;48626;51.678;5.806;2023-07-29T14:19:48;4.75;;;2.83;;
62572;SDS011;48626;51.678;5.806;2023-07-29T14:22:14;5.45;;;3.08;;
62572;SDS011;48626;51.678;5.806;2023-07-29T14:24:39;3.65;;;2.70;;
62572;SDS011;48626;51.678;5.806;2023-07-29T14:27:05;4.07;;;2.90;;
62572;SDS011;48626;51.678;5.806;2023-07-29T14:29:31;4.68;;;2.95;;
62572;SDS011;48626;51.678;5.806;2023-07-29T14:31:57;3.97;;;2.60;;
62572;SDS011;48626;51.678;5.806;2023-07-29T14:34:22;4.78;;;2.80;;
62572;SDS011;48626;51.678;5.806;2023-07-29T14:36:48;5.85;;;2.92;;
62572;SDS011;48626;51.678;5.806;2023-07-29T14:39:13;4.13;;;3.00;;
62572;SDS011;48626;51.678;5.806;2023-07-29T14:41:39;8.63;;;3.05;;
62572;SDS011;48626;51.678;5.806;2023-07-29T14:44:05;8.02;;;2.97;;
62572;SDS011;48626;51.678;5.806;2023-07-29T14:46:30;5.05;;;2.75;;
62572;SDS011;48626;51.678;5.806;2023-07-29T14:48:56;4.07;;;2.97;;
62572;SDS011;48626;51.678;5.806;2023-07-29T14:51:22;3.80;;;2.95;;
62572;SDS011;48626;51.678;5.806;2023-07-29T14:53:48;4.13;;;3.10;;
62572;SDS011;48626;51.678;5.806;2023-07-29T14:56:14;6.85;;;2.78;;
62572;SDS011;48626;51.678;5.806;2023-07-29T14:58:42;4.17;;;2.97;;